High River, Canada
Current Conditions -  °F | °C
As of 12:23 AM on Wednesday 26 Nov 2014 (Local Time) from CYYC Reporting Station
Light Fog Light Fog  
Wind Chill: 25°   Ceiling: 11000
Heat Index: 25°   Visibility: 7mi
Dew Point: 21°   Wind: 2mph
Humidity: 86%   Direction: 160°SSE
Pressure: 30.11"   Gusts: NA
Location:  50.58°N, 113.87°W
Report Text: CYYC 260723Z 16002KT 7SM BCFG FEW050 BKN110 M04/M06 A3011 RMK SC2AC4 SLP249
Loading
Personal Weather Stations






























Interactive Weather Map New forecast layout! Learn more

10-Day Weather Forecast

Advertisements
Track Severe Weather on mobile